Time;durP1;ratioP1;P1;durP2;ratioP2;P2;SDS_P1;SDS_P2;PMS_P1;PMS_P2;Temp;Humidity;BMP_temperature;BMP_pressure;BME280_temperature;BME280_humidity;BME280_pressure;Samples;Min_cycle;Max_cycle;Signal;HPM_P1;HPM_P2
2023/12/07 00:00:46;;;;;;;12.07;8.27;;;;;;;;;;5015602;28;20049;-82
2023/12/07 00:03:15;;;;;;;13.82;9.00;;;;;;;;;;5015931;28;20014;-82
2023/12/07 00:05:41;;;;;;;12.52;8.80;;;;;;;;;;5010005;28;20014;-82
2023/12/07 00:08:10;;;;;;;10.50;7.80;;;;;;;;;;5017803;28;20022;-82
2023/12/07 00:10:36;;;;;;;11.48;7.70;;;;;;;;;;5018135;28;20033;-81
2023/12/07 00:13:02;;;;;;;8.55;6.75;;;;;;;;;;5017559;28;20037;-82
2023/12/07 00:15:29;;;;;;;7.57;5.72;;;;;;;;;;5016575;28;20033;-82
2023/12/07 00:17:55;;;;;;;6.50;5.10;;;;;;;;;;5013120;28;20509;-82
2023/12/07 00:20:21;;;;;;;7.93;5.47;;;;;;;;;;5014977;28;20026;-83
2023/12/07 00:22:47;;;;;;;8.43;5.88;;;;;;;;;;5009726;28;20026;-82
2023/12/07 00:25:13;;;;;;;10.32;6.75;;;;;;;;;;5014605;28;20049;-83
2023/12/07 00:27:39;;;;;;;10.40;8.10;;;;;;;;;;5016505;28;20477;-82
2023/12/07 00:30:06;;;;;;;15.20;9.73;;;;;;;;;;5015804;28;20018;-83
2023/12/07 00:32:32;;;;;;;15.38;9.50;;;;;;;;;;5021877;28;20033;-82
2023/12/07 00:34:58;;;;;;;14.05;9.10;;;;;;;;;;5021114;28;20021;-82
2023/12/07 00:37:24;;;;;;;12.25;8.65;;;;;;;;;;5021196;28;20026;-82
2023/12/07 00:39:51;;;;;;;11.93;8.48;;;;;;;;;;5021381;28;20026;-82
2023/12/07 00:42:17;;;;;;;11.30;7.50;;;;;;;;;;5034664;28;20021;-82
2023/12/07 00:44:43;;;;;;;12.43;9.38;;;;;;;;;;5036700;28;20416;-81
2023/12/07 00:47:09;;;;;;;13.48;8.93;;;;;;;;;;5032610;28;20026;-82
2023/12/07 00:49:42;;;;;;;14.05;9.13;;;;;;;;;;5019689;28;20042;-82
2023/12/07 00:52:08;;;;;;;12.98;8.65;;;;;;;;;;5018645;28;20026;-82
2023/12/07 00:54:34;;;;;;;12.38;8.02;;;;;;;;;;5018219;28;20416;-83
2023/12/07 00:57:00;;;;;;;10.15;7.10;;;;;;;;;;5019543;28;20621;-82
2023/12/07 00:59:27;;;;;;;9.43;6.63;;;;;;;;;;5018397;28;20037;-82
2023/12/07 01:01:53;;;;;;;9.15;6.35;;;;;;;;;;5020219;28;20506;-82
2023/12/07 01:04:19;;;;;;;11.48;6.93;;;;;;;;;;5019669;28;20080;-81
2023/12/07 01:06:45;;;;;;;11.07;7.30;;;;;;;;;;5018614;28;20037;-82
2023/12/07 01:09:13;;;;;;;9.90;6.85;;;;;;;;;;5018588;28;20033;-82
2023/12/07 01:11:42;;;;;;;9.65;6.40;;;;;;;;;;5018791;28;20148;-82
2023/12/07 01:14:08;;;;;;;11.57;7.75;;;;;;;;;;5018483;28;20040;-82
2023/12/07 01:16:34;;;;;;;13.15;8.20;;;;;;;;;;5018244;28;20418;-82
2023/12/07 01:19:00;;;;;;;15.68;10.52;;;;;;;;;;5018651;28;20026;-82
2023/12/07 01:21:26;;;;;;;16.45;10.18;;;;;;;;;;5019881;28;20380;-83
2023/12/07 01:23:53;;;;;;;14.68;9.85;;;;;;;;;;5021682;28;20034;-82
2023/12/07 01:26:19;;;;;;;14.60;8.93;;;;;;;;;;5019671;28;20025;-82
2023/12/07 01:28:45;;;;;;;14.60;9.70;;;;;;;;;;5019601;28;20022;-82
2023/12/07 01:31:11;;;;;;;14.52;10.07;;;;;;;;;;5020008;28;20025;-81
2023/12/07 01:33:37;;;;;;;14.80;9.43;;;;;;;;;;5020284;28;20283;-83
2023/12/07 01:36:03;;;;;;;17.00;10.18;;;;;;;;;;5021022;28;20030;-82
2023/12/07 01:38:29;;;;;;;16.00;10.27;;;;;;;;;;5021502;28;20067;-82
2023/12/07 01:40:56;;;;;;;12.85;8.90;;;;;;;;;;5018472;28;20085;-82
2023/12/07 01:43:24;;;;;;;12.55;8.50;;;;;;;;;;5020213;28;20025;-81
2023/12/07 01:45:55;;;;;;;15.57;9.75;;;;;;;;;;5020125;28;20018;-82
2023/12/07 01:48:23;;;;;;;15.45;9.95;;;;;;;;;;5019159;28;20416;-82
2023/12/07 01:50:49;;;;;;;17.65;11.48;;;;;;;;;;5018636;28;20028;-82
2023/12/07 01:53:15;;;;;;;16.58;10.90;;;;;;;;;;5018236;28;20036;-82
2023/12/07 01:55:42;;;;;;;15.48;10.13;;;;;;;;;;5018360;28;20097;-83
2023/12/07 01:58:08;;;;;;;12.48;8.68;;;;;;;;;;5017517;28;20060;-83
2023/12/07 02:00:35;;;;;;;12.85;8.73;;;;;;;;;;5019914;28;20028;-83
2023/12/07 02:03:03;;;;;;;18.38;11.23;;;;;;;;;;5019962;28;20018;-83
2023/12/07 02:05:29;;;;;;;17.83;11.60;;;;;;;;;;5020178;28;20085;-82
2023/12/07 02:07:56;;;;;;;17.77;10.68;;;;;;;;;;5018434;28;20022;-82
2023/12/07 02:10:25;;;;;;;17.15;11.15;;;;;;;;;;5020075;28;20033;-81
2023/12/07 02:12:52;;;;;;;18.42;11.85;;;;;;;;;;5019306;28;20083;-82
2023/12/07 02:15:19;;;;;;;18.90;11.43;;;;;;;;;;5017553;28;20078;-81
2023/12/07 02:17:51;;;;;;;17.92;10.52;;;;;;;;;;5018767;28;20064;-82
2023/12/07 02:20:22;;;;;;;14.50;9.57;;;;;;;;;;5019595;28;20088;-83
2023/12/07 02:22:53;;;;;;;18.83;11.38;;;;;;;;;;5017744;28;20054;-81
2023/12/07 02:25:24;;;;;;;18.05;11.20;;;;;;;;;;5017100;28;20084;-82
2023/12/07 02:27:50;;;;;;;21.15;11.57;;;;;;;;;;5016227;28;20464;-82
2023/12/07 02:30:16;;;;;;;16.08;9.93;;;;;;;;;;5019988;28;20083;-81
2023/12/07 02:32:44;;;;;;;15.57;9.88;;;;;;;;;;5027329;28;20030;-81
2023/12/07 02:35:14;;;;;;;13.32;9.07;;;;;;;;;;5015470;28;20022;-81
2023/12/07 02:37:44;;;;;;;12.43;8.63;;;;;;;;;;5019294;28;20087;-80
2023/12/07 02:40:11;;;;;;;12.38;8.20;;;;;;;;;;5031498;28;20040;-81
2023/12/07 02:42:42;;;;;;;11.93;7.82;;;;;;;;;;5033683;28;20034;-79
2023/12/07 02:45:10;;;;;;;10.77;7.47;;;;;;;;;;5033419;28;20056;-80
2023/12/07 02:47:36;;;;;;;13.65;8.75;;;;;;;;;;5034136;28;20081;-80
2023/12/07 02:50:06;;;;;;;10.73;7.43;;;;;;;;;;5034549;28;20041;-80
2023/12/07 02:52:32;;;;;;;13.00;8.52;;;;;;;;;;5033954;28;20028;-81
2023/12/07 02:54:58;;;;;;;11.38;7.45;;;;;;;;;;5033816;28;20072;-82
2023/12/07 02:57:24;;;;;;;12.35;8.40;;;;;;;;;;5030393;28;20137;-82
2023/12/07 02:59:50;;;;;;;12.82;8.25;;;;;;;;;;5032533;28;20149;-81
2023/12/07 03:02:16;;;;;;;14.75;9.40;;;;;;;;;;5040606;28;20035;-81
2023/12/07 03:04:42;;;;;;;13.35;8.68;;;;;;;;;;5032875;28;20022;-81
2023/12/07 03:07:09;;;;;;;14.90;8.80;;;;;;;;;;5033188;28;20085;-81
2023/12/07 03:09:35;;;;;;;14.85;9.25;;;;;;;;;;5033339;28;20010;-81
2023/12/07 03:12:01;;;;;;;12.88;8.35;;;;;;;;;;5032067;28;20030;-82
2023/12/07 03:14:27;;;;;;;12.63;7.95;;;;;;;;;;5032435;28;20030;-80
2023/12/07 03:16:53;;;;;;;12.57;8.48;;;;;;;;;;5032019;28;20034;-81
2023/12/07 03:19:19;;;;;;;13.35;8.90;;;;;;;;;;5033218;28;20085;-82
2023/12/07 03:21:45;;;;;;;12.82;8.23;;;;;;;;;;5031883;28;20044;-81
2023/12/07 03:24:12;;;;;;;10.77;7.78;;;;;;;;;;5032596;28;20846;-80
2023/12/07 03:26:38;;;;;;;11.40;8.10;;;;;;;;;;5033223;28;20041;-81
2023/12/07 03:29:04;;;;;;;11.45;7.20;;;;;;;;;;5031920;28;20029;-81
2023/12/07 03:31:31;;;;;;;14.00;8.45;;;;;;;;;;5031613;28;20078;-80
2023/12/07 03:33:59;;;;;;;10.88;7.20;;;;;;;;;;5031585;28;20045;-79
2023/12/07 03:36:25;;;;;;;10.95;7.15;;;;;;;;;;5031168;28;20064;-80
2023/12/07 03:38:51;;;;;;;13.38;8.77;;;;;;;;;;5031248;28;20021;-81
2023/12/07 03:41:17;;;;;;;12.55;8.70;;;;;;;;;;5026504;28;20097;-80
2023/12/07 03:43:43;;;;;;;14.73;8.95;;;;;;;;;;5025778;28;20030;-80
2023/12/07 03:46:09;;;;;;;12.80;7.65;;;;;;;;;;5031507;28;20041;-80
2023/12/07 03:48:36;;;;;;;9.82;7.20;;;;;;;;;;5028616;28;20027;-81
2023/12/07 03:51:02;;;;;;;10.40;6.70;;;;;;;;;;5013292;28;20473;-82
2023/12/07 03:53:28;;;;;;;11.00;7.07;;;;;;;;;;5007822;28;20180;-81
2023/12/07 03:55:54;;;;;;;10.73;6.45;;;;;;;;;;5015143;28;20040;-80
2023/12/07 03:58:20;;;;;;;11.43;7.15;;;;;;;;;;5013292;28;20493;-79
2023/12/07 04:00:46;;;;;;;10.05;6.63;;;;;;;;;;5005608;28;20030;-79
2023/12/07 04:03:13;;;;;;;10.68;6.65;;;;;;;;;;5016594;28;20014;-81
2023/12/07 04:05:39;;;;;;;8.82;6.32;;;;;;;;;;5012184;28;20068;-81
2023/12/07 04:08:05;;;;;;;9.48;5.75;;;;;;;;;;5012441;28;20036;-82
2023/12/07 04:10:32;;;;;;;7.32;5.15;;;;;;;;;;5018906;28;20030;-81
2023/12/07 04:12:58;;;;;;;7.53;5.78;;;;;;;;;;5017209;28;20029;-80
2023/12/07 04:15:24;;;;;;;7.72;5.70;;;;;;;;;;5016391;28;20022;-80
2023/12/07 04:17:50;;;;;;;11.02;6.47;;;;;;;;;;5018281;28;20038;-81
2023/12/07 04:20:16;;;;;;;10.65;6.55;;;;;;;;;;5018976;28;20026;-80
2023/12/07 04:22:44;;;;;;;11.15;6.63;;;;;;;;;;5017232;28;20366;-80
2023/12/07 04:25:10;;;;;;;8.23;5.65;;;;;;;;;;5015115;28;20045;-80
2023/12/07 04:27:36;;;;;;;8.50;5.63;;;;;;;;;;5024905;28;20445;-80
2023/12/07 04:30:03;;;;;;;6.25;4.53;;;;;;;;;;5021641;28;20026;-80
2023/12/07 04:32:29;;;;;;;6.60;4.95;;;;;;;;;;5017284;28;20045;-81
2023/12/07 04:34:56;;;;;;;8.82;5.45;;;;;;;;;;5018582;28;20084;-81
2023/12/07 04:37:22;;;;;;;7.65;5.18;;;;;;;;;;5018563;28;20060;-81
2023/12/07 04:39:48;;;;;;;7.68;5.03;;;;;;;;;;5010796;28;20078;-82
2023/12/07 04:42:14;;;;;;;5.80;4.28;;;;;;;;;;5024449;28;20025;-82
2023/12/07 04:44:40;;;;;;;6.80;5.13;;;;;;;;;;5026728;28;20026;-83
2023/12/07 04:47:06;;;;;;;7.47;4.80;;;;;;;;;;5024386;28;20076;-81
2023/12/07 04:49:32;;;;;;;7.47;4.95;;;;;;;;;;5022857;28;20099;-82
2023/12/07 04:51:58;;;;;;;8.85;5.68;;;;;;;;;;5012558;28;20117;-82
2023/12/07 04:54:26;;;;;;;7.50;5.05;;;;;;;;;;5019397;28;20030;-83
2023/12/07 04:56:52;;;;;;;6.72;4.75;;;;;;;;;;5028695;28;20480;-82
2023/12/07 04:59:19;;;;;;;7.50;4.93;;;;;;;;;;5023274;28;20158;-82
2023/12/07 05:01:47;;;;;;;8.65;5.47;;;;;;;;;;5032106;28;20041;-81
2023/12/07 05:04:14;;;;;;;7.25;4.97;;;;;;;;;;5033127;28;20053;-82
2023/12/07 05:06:40;;;;;;;10.27;6.47;;;;;;;;;;5028833;28;20022;-82
2023/12/07 05:09:09;;;;;;;7.97;5.72;;;;;;;;;;5020262;28;20022;-80
2023/12/07 05:11:36;;;;;;;9.93;6.18;;;;;;;;;;5019112;28;20033;-81
2023/12/07 05:14:03;;;;;;;8.52;5.53;;;;;;;;;;5018453;28;20018;-82
2023/12/07 05:16:29;;;;;;;9.45;5.72;;;;;;;;;;5009666;28;20088;-82
2023/12/07 05:18:55;;;;;;;7.68;5.55;;;;;;;;;;5021654;28;20021;-81
2023/12/07 05:21:21;;;;;;;7.75;5.18;;;;;;;;;;5018764;28;20026;-81
2023/12/07 05:23:48;;;;;;;7.63;5.18;;;;;;;;;;5013782;28;20384;-80
2023/12/07 05:26:14;;;;;;;8.15;5.45;;;;;;;;;;5019123;28;20107;-83
2023/12/07 05:28:41;;;;;;;8.02;5.47;;;;;;;;;;5027923;28;20017;-81
2023/12/07 05:31:07;;;;;;;8.20;5.30;;;;;;;;;;5022229;28;20026;-82
2023/12/07 05:33:33;;;;;;;8.93;5.80;;;;;;;;;;5020320;28;20065;-82
2023/12/07 05:36:00;;;;;;;6.47;4.80;;;;;;;;;;5023329;28;20068;-80
2023/12/07 05:38:26;;;;;;;5.60;4.05;;;;;;;;;;5025910;28;20026;-81
2023/12/07 05:40:52;;;;;;;8.15;5.30;;;;;;;;;;5022028;28;20033;-82
2023/12/07 05:43:19;;;;;;;5.97;4.30;;;;;;;;;;5022599;28;20053;-83
2023/12/07 05:45:45;;;;;;;4.45;3.83;;;;;;;;;;5019899;28;20149;-80
2023/12/07 05:48:11;;;;;;;5.22;3.45;;;;;;;;;;5018639;28;20087;-80
2023/12/07 05:50:39;;;;;;;7.15;4.20;;;;;;;;;;5025573;28;20033;-80
2023/12/07 05:53:06;;;;;;;5.40;3.55;;;;;;;;;;5036904;28;20034;-81
2023/12/07 05:55:32;;;;;;;6.13;3.85;;;;;;;;;;5036031;28;20013;-81
2023/12/07 05:57:59;;;;;;;6.07;3.85;;;;;;;;;;5035931;28;20056;-82
2023/12/07 06:00:25;;;;;;;6.45;4.05;;;;;;;;;;5029489;28;20058;-81
2023/12/07 06:02:51;;;;;;;5.53;3.75;;;;;;;;;;5023276;28;20029;-81
2023/12/07 06:05:18;;;;;;;4.80;3.53;;;;;;;;;;5016897;28;20156;-80
2023/12/07 06:07:44;;;;;;;6.07;3.80;;;;;;;;;;5021520;28;20082;-81
2023/12/07 06:10:10;;;;;;;4.55;3.38;;;;;;;;;;5024112;28;20038;-82
2023/12/07 06:12:36;;;;;;;5.75;3.92;;;;;;;;;;5021321;28;20128;-82
2023/12/07 06:15:03;;;;;;;5.03;3.38;;;;;;;;;;5047494;23;20049;-82
2023/12/07 06:17:29;;;;;;;5.20;3.47;;;;;;;;;;5014674;28;20033;-82
2023/12/07 06:19:56;;;;;;;5.65;3.92;;;;;;;;;;5021848;28;20377;-83
2023/12/07 06:22:22;;;;;;;6.03;4.18;;;;;;;;;;5023332;28;20026;-81
2023/12/07 06:24:48;;;;;;;6.47;4.15;;;;;;;;;;5022389;28;20076;-82
2023/12/07 06:27:14;;;;;;;6.13;4.00;;;;;;;;;;5025033;28;20022;-80
2023/12/07 06:29:40;;;;;;;6.05;3.70;;;;;;;;;;5019879;28;20037;-80
2023/12/07 06:32:06;;;;;;;5.72;3.75;;;;;;;;;;5019046;28;20057;-80
2023/12/07 06:34:32;;;;;;;5.78;4.20;;;;;;;;;;5015154;28;20029;-81
2023/12/07 06:36:59;;;;;;;6.65;4.00;;;;;;;;;;5017359;28;20127;-79
2023/12/07 06:39:25;;;;;;;5.60;3.90;;;;;;;;;;5029196;28;20107;-79
2023/12/07 06:41:51;;;;;;;6.63;4.07;;;;;;;;;;5029391;28;20059;-81
2023/12/07 06:44:18;;;;;;;5.28;3.65;;;;;;;;;;5023830;28;20053;-80
2023/12/07 06:46:44;;;;;;;6.30;4.05;;;;;;;;;;5041729;28;20029;-80
2023/12/07 06:49:12;;;;;;;4.85;3.58;;;;;;;;;;5034112;28;20022;-81
2023/12/07 06:51:38;;;;;;;6.13;3.60;;;;;;;;;;5021660;28;20117;-81
2023/12/07 06:54:05;;;;;;;5.97;3.60;;;;;;;;;;5022007;28;20074;-80
2023/12/07 06:56:31;;;;;;;5.82;4.00;;;;;;;;;;5035139;28;20037;-80
2023/12/07 06:58:57;;;;;;;6.43;4.13;;;;;;;;;;5042120;28;20108;-80
2023/12/07 07:01:23;;;;;;;6.60;4.90;;;;;;;;;;5019970;28;20057;-82
2023/12/07 07:03:49;;;;;;;7.85;5.18;;;;;;;;;;5022916;28;20417;-80
2023/12/07 07:06:16;;;;;;;7.97;4.63;;;;;;;;;;5026875;28;20025;-78
2023/12/07 07:08:42;;;;;;;7.25;5.30;;;;;;;;;;5016900;28;20033;-80
2023/12/07 07:11:14;;;;;;;6.22;4.20;;;;;;;;;;5015913;28;20331;-78
2023/12/07 07:13:41;;;;;;;6.90;4.72;;;;;;;;;;5008900;28;20116;-78
2023/12/07 07:16:08;;;;;;;6.85;4.70;;;;;;;;;;5004686;28;20041;-79
2023/12/07 07:18:35;;;;;;;7.82;5.53;;;;;;;;;;5016982;28;20041;-78
2023/12/07 07:21:01;;;;;;;9.93;5.40;;;;;;;;;;5020546;28;20049;-78
2023/12/07 07:23:27;;;;;;;8.30;4.70;;;;;;;;;;5010535;28;20022;-78
2023/12/07 07:25:53;;;;;;;6.85;4.70;;;;;;;;;;5015647;28;20377;-78
2023/12/07 07:28:20;;;;;;;7.10;4.32;;;;;;;;;;5014281;28;20026;-79
2023/12/07 07:30:46;;;;;;;7.10;4.95;;;;;;;;;;5015441;28;20025;-78
2023/12/07 07:33:12;;;;;;;6.60;4.03;;;;;;;;;;5004066;28;20033;-77
2023/12/07 07:35:38;;;;;;;5.28;3.78;;;;;;;;;;5030085;28;20017;-77
2023/12/07 07:38:04;;;;;;;5.75;4.35;;;;;;;;;;5014221;28;20061;-77
2023/12/07 07:40:30;;;;;;;5.13;3.72;;;;;;;;;;5013156;28;20026;-77
2023/12/07 07:42:56;;;;;;;6.45;3.80;;;;;;;;;;5014205;28;20025;-77
2023/12/07 07:45:23;;;;;;;6.28;3.80;;;;;;;;;;5021609;28;20025;-77
2023/12/07 07:47:49;;;;;;;5.63;3.78;;;;;;;;;;5019807;28;20030;-78
2023/12/07 07:50:16;;;;;;;5.50;3.78;;;;;;;;;;5011951;28;20037;-78
2023/12/07 07:52:42;;;;;;;6.40;4.00;;;;;;;;;;5015810;28;20021;-78
2023/12/07 07:55:09;;;;;;;7.10;4.15;;;;;;;;;;5014038;28;20021;-78
2023/12/07 07:57:35;;;;;;;4.75;3.67;;;;;;;;;;5016319;28;20025;-79
2023/12/07 08:00:01;;;;;;;5.55;3.72;;;;;;;;;;5014046;28;20029;-79
2023/12/07 08:02:28;;;;;;;5.43;3.80;;;;;;;;;;5015930;28;20037;-78
2023/12/07 08:04:54;;;;;;;6.35;4.50;;;;;;;;;;5013613;28;20055;-77
2023/12/07 08:07:20;;;;;;;6.35;4.03;;;;;;;;;;5011703;28;20113;-78
2023/12/07 08:09:46;;;;;;;5.03;3.63;;;;;;;;;;5015973;28;20036;-78
2023/12/07 08:12:12;;;;;;;6.07;3.90;;;;;;;;;;5017333;28;20030;-77
2023/12/07 08:14:38;;;;;;;5.20;3.70;;;;;;;;;;5017352;28;20086;-78
2023/12/07 08:17:04;;;;;;;6.20;3.92;;;;;;;;;;5016563;28;20034;-77
2023/12/07 08:19:31;;;;;;;5.07;3.83;;;;;;;;;;5017608;28;20076;-76
2023/12/07 08:21:57;;;;;;;4.80;3.70;;;;;;;;;;5015972;28;20033;-77
2023/12/07 08:24:25;;;;;;;4.75;3.58;;;;;;;;;;5016177;28;20470;-77
2023/12/07 08:26:51;;;;;;;5.10;3.75;;;;;;;;;;5013751;28;20022;-78
2023/12/07 08:29:17;;;;;;;6.85;4.53;;;;;;;;;;5015606;28;20010;-76
2023/12/07 08:31:44;;;;;;;5.18;3.55;;;;;;;;;;5016252;28;20033;-76
2023/12/07 08:34:10;;;;;;;5.18;3.50;;;;;;;;;;5024213;28;20021;-78
2023/12/07 08:36:36;;;;;;;4.55;3.35;;;;;;;;;;5016588;28;20030;-77
2023/12/07 08:39:02;;;;;;;5.10;3.80;;;;;;;;;;5015448;28;20022;-78
2023/12/07 08:41:28;;;;;;;5.90;3.28;;;;;;;;;;5015682;28;20057;-80
2023/12/07 08:43:54;;;;;;;4.60;3.63;;;;;;;;;;5019840;28;20026;-78
2023/12/07 08:46:20;;;;;;;4.25;3.13;;;;;;;;;;5017361;28;20053;-78
2023/12/07 08:48:46;;;;;;;4.75;3.42;;;;;;;;;;5017520;28;20018;-78
2023/12/07 08:51:13;;;;;;;4.78;3.30;;;;;;;;;;5021083;28;20099;-76
2023/12/07 08:53:39;;;;;;;4.60;3.03;;;;;;;;;;5020013;28;20528;-76
2023/12/07 08:56:06;;;;;;;4.90;3.10;;;;;;;;;;5020398;28;20037;-78
2023/12/07 08:58:32;;;;;;;4.18;2.95;;;;;;;;;;5026527;28;20029;-78
2023/12/07 09:01:05;;;;;;;3.35;2.58;;;;;;;;;;5014127;28;20458;-77
2023/12/07 09:03:32;;;;;;;2.30;2.10;;;;;;;;;;5022236;28;20064;-78
2023/12/07 09:05:59;;;;;;;2.78;2.22;;;;;;;;;;5020986;28;20418;-78
2023/12/07 09:08:25;;;;;;;3.10;2.28;;;;;;;;;;5042039;28;20089;-78
2023/12/07 09:10:51;;;;;;;4.18;2.65;;;;;;;;;;5028792;28;20029;-79
2023/12/07 09:13:17;;;;;;;3.08;2.30;;;;;;;;;;5035165;28;20018;-80
2023/12/07 09:15:43;;;;;;;3.22;2.40;;;;;;;;;;5030773;28;20042;-82
2023/12/07 09:18:12;;;;;;;2.83;2.25;;;;;;;;;;5026005;28;20418;-78
2023/12/07 09:20:45;;;;;;;3.58;2.67;;;;;;;;;;5039872;28;20055;-78
2023/12/07 09:23:14;;;;;;;2.60;2.15;;;;;;;;;;5023148;28;20022;-77
2023/12/07 09:25:40;;;;;;;2.83;2.15;;;;;;;;;;5018860;28;20014;-78
2023/12/07 09:28:09;;;;;;;2.47;2.05;;;;;;;;;;5018260;28;20022;-78
2023/12/07 09:30:35;;;;;;;4.80;2.45;;;;;;;;;;5019898;28;20030;-79
2023/12/07 09:33:04;;;;;;;2.80;1.85;;;;;;;;;;5021510;28;20109;-78
2023/12/07 09:35:34;;;;;;;2.35;1.92;;;;;;;;;;5024853;28;20064;-77
2023/12/07 09:38:00;;;;;;;2.53;1.85;;;;;;;;;;5024265;28;20021;-76
2023/12/07 09:40:27;;;;;;;1.90;1.60;;;;;;;;;;5022941;28;20026;-77
2023/12/07 09:42:54;;;;;;;2.17;1.88;;;;;;;;;;5017798;28;20523;-77
2023/12/07 09:45:21;;;;;;;1.40;1.30;;;;;;;;;;5016903;28;20022;-78
2023/12/07 09:47:54;;;;;;;2.22;1.70;;;;;;;;;;5018434;28;20052;-78
2023/12/07 09:50:21;;;;;;;1.63;1.52;;;;;;;;;;5019550;28;20032;-79
2023/12/07 09:52:49;;;;;;;1.75;1.33;;;;;;;;;;5023938;28;20022;-79
2023/12/07 09:55:17;;;;;;;2.50;1.45;;;;;;;;;;5023926;28;20037;-76
2023/12/07 09:57:43;;;;;;;1.48;1.27;;;;;;;;;;5017231;28;20033;-78
2023/12/07 10:00:13;;;;;;;1.30;1.15;;;;;;;;;;5019174;28;20081;-76
2023/12/07 10:02:41;;;;;;;1.10;1.00;;;;;;;;;;5023885;28;20025;-79
2023/12/07 10:05:07;;;;;;;1.88;1.10;;;;;;;;;;4999175;28;20128;-77
2023/12/07 10:07:36;;;;;;;1.42;1.20;;;;;;;;;;5005968;28;20034;-78
2023/12/07 10:10:03;;;;;;;0.88;0.80;;;;;;;;;;5016848;28;20022;-77
2023/12/07 10:12:29;;;;;;;2.45;1.25;;;;;;;;;;5015701;28;20026;-78
2023/12/07 10:14:55;;;;;;;0.90;0.73;;;;;;;;;;5006586;28;20026;-78
2023/12/07 10:17:23;;;;;;;2.53;0.90;;;;;;;;;;5016070;28;20028;-77
2023/12/07 10:20:12;;;;;;;1.38;0.93;;;;;;;;;;5021961;28;20025;-77
2023/12/07 10:22:39;;;;;;;1.23;0.90;;;;;;;;;;5024708;28;20037;-78
2023/12/07 10:25:06;;;;;;;0.80;0.77;;;;;;;;;;5018783;28;20018;-77
2023/12/07 10:27:34;;;;;;;1.02;0.93;;;;;;;;;;5017179;28;20026;-77
2023/12/07 10:30:00;;;;;;;0.80;0.75;;;;;;;;;;5021633;28;20022;-78
2023/12/07 10:32:26;;;;;;;0.95;0.73;;;;;;;;;;5021597;28;20087;-79
2023/12/07 10:34:56;;;;;;;0.85;0.85;;;;;;;;;;4997423;28;20088;-77
2023/12/07 10:37:22;;;;;;;1.20;0.70;;;;;;;;;;5017593;28;20117;-76
2023/12/07 10:39:48;;;;;;;0.77;0.70;;;;;;;;;;5017280;28;20037;-80
2023/12/07 10:42:16;;;;;;;0.80;0.60;;;;;;;;;;5024305;28;20041;-79
2023/12/07 10:44:43;;;;;;;0.52;0.52;;;;;;;;;;5002337;28;20453;-78
2023/12/07 10:47:12;;;;;;;0.73;0.52;;;;;;;;;;5015272;28;20161;-78
2023/12/07 10:49:41;;;;;;;0.50;0.50;;;;;;;;;;5020260;28;20049;-78
2023/12/07 10:52:08;;;;;;;1.38;0.90;;;;;;;;;;5028814;28;20025;-79
2023/12/07 10:54:42;;;;;;;0.65;0.65;;;;;;;;;;5023984;28;20073;-77
2023/12/07 10:57:09;;;;;;;2.08;1.02;;;;;;;;;;5017199;28;20029;-78
2023/12/07 10:59:36;;;;;;;1.02;0.93;;;;;;;;;;5018359;28;20049;-78
2023/12/07 11:02:03;;;;;;;2.30;1.10;;;;;;;;;;5017660;28;20018;-78
2023/12/07 11:04:30;;;;;;;1.08;0.93;;;;;;;;;;5018583;28;20021;-78
2023/12/07 11:06:57;;;;;;;1.17;1.05;;;;;;;;;;5031950;28;20101;-78
2023/12/07 11:09:28;;;;;;;1.05;0.98;;;;;;;;;;5022278;28;20076;-80
2023/12/07 11:12:02;;;;;;;1.17;0.75;;;;;;;;;;5032213;28;20098;-80
2023/12/07 11:14:28;;;;;;;1.83;1.10;;;;;;;;;;5024413;28;20026;-79
2023/12/07 11:16:54;;;;;;;1.10;0.82;;;;;;;;;;5030026;28;20490;-78
2023/12/07 11:19:32;;;;;;;0.80;0.80;;;;;;;;;;5033856;28;20093;-82
2023/12/07 11:22:00;;;;;;;0.80;0.80;;;;;;;;;;5033409;28;20387;-78
2023/12/07 11:24:26;;;;;;;1.00;0.85;;;;;;;;;;5032824;28;20090;-79
2023/12/07 11:26:52;;;;;;;0.95;0.85;;;;;;;;;;5025466;28;20038;-78
2023/12/07 11:29:22;;;;;;;1.20;0.90;;;;;;;;;;5015800;28;20022;-79
2023/12/07 11:31:52;;;;;;;0.60;0.60;;;;;;;;;;5017762;28;20033;-78
2023/12/07 11:34:36;;;;;;;1.35;0.80;;;;;;;;;;5015100;28;20030;-79
2023/12/07 11:37:03;;;;;;;0.75;0.70;;;;;;;;;;5010233;28;20045;-79
2023/12/07 11:39:30;;;;;;;0.52;0.52;;;;;;;;;;5020527;28;20022;-79
2023/12/07 11:42:06;;;;;;;0.57;0.57;;;;;;;;;;5027114;28;20021;-79
2023/12/07 11:44:34;;;;;;;0.93;0.60;;;;;;;;;;5013258;28;20030;-79
2023/12/07 11:47:01;;;;;;;0.63;0.63;;;;;;;;;;5017003;28;20018;-78
2023/12/07 11:49:27;;;;;;;1.15;0.88;;;;;;;;;;5013969;28;20053;-78
2023/12/07 11:51:53;;;;;;;1.60;0.90;;;;;;;;;;5014637;28;20083;-78
2023/12/07 11:54:20;;;;;;;0.85;0.70;;;;;;;;;;5019061;28;20025;-77
2023/12/07 11:56:52;;;;;;;0.77;0.50;;;;;;;;;;5015782;28;20022;-77
2023/12/07 11:59:18;;;;;;;1.13;0.70;;;;;;;;;;5016467;28;20021;-79
2023/12/07 12:01:48;;;;;;;0.50;0.50;;;;;;;;;;5020347;28;20025;-78
2023/12/07 12:04:16;;;;;;;0.82;0.60;;;;;;;;;;5013839;28;20101;-79
2023/12/07 12:06:44;;;;;;;0.77;0.70;;;;;;;;;;5016118;28;20018;-78
2023/12/07 12:09:12;;;;;;;1.98;1.00;;;;;;;;;;5014834;28;20029;-79
2023/12/07 12:11:44;;;;;;;0.98;0.88;;;;;;;;;;5024196;28;20552;-78
2023/12/07 12:14:10;;;;;;;1.27;1.05;;;;;;;;;;5016931;28;20022;-80
2023/12/07 12:16:36;;;;;;;1.58;1.30;;;;;;;;;;5016196;28;20392;-77
2023/12/07 12:19:02;;;;;;;0.95;0.93;;;;;;;;;;5015323;28;20030;-79
2023/12/07 12:21:29;;;;;;;1.55;1.25;;;;;;;;;;5024526;28;20079;-79
2023/12/07 12:23:55;;;;;;;1.35;1.10;;;;;;;;;;5023428;28;20048;-78
2023/12/07 12:26:21;;;;;;;1.15;1.00;;;;;;;;;;5019237;28;20018;-79
2023/12/07 12:28:47;;;;;;;1.25;0.80;;;;;;;;;;5018796;28;20022;-79
2023/12/07 12:31:14;;;;;;;1.10;0.93;;;;;;;;;;5024181;28;20029;-79
2023/12/07 12:33:40;;;;;;;0.88;0.85;;;;;;;;;;5024443;28;20056;-78
2023/12/07 12:36:07;;;;;;;1.60;0.98;;;;;;;;;;5025858;28;20111;-77
2023/12/07 12:38:34;;;;;;;1.42;0.80;;;;;;;;;;5021432;28;20072;-79
2023/12/07 12:41:00;;;;;;;1.83;1.00;;;;;;;;;;5019706;28;20060;-79
2023/12/07 12:43:26;;;;;;;1.58;1.00;;;;;;;;;;5024242;28;20026;-79
2023/12/07 12:45:54;;;;;;;1.00;0.90;;;;;;;;;;5030876;28;20040;-80
2023/12/07 12:48:20;;;;;;;1.55;1.02;;;;;;;;;;5018504;28;20366;-79
2023/12/07 12:50:46;;;;;;;1.40;1.10;;;;;;;;;;5022448;28;20034;-79
2023/12/07 12:53:15;;;;;;;2.20;1.40;;;;;;;;;;5020970;28;20017;-79
2023/12/07 12:55:42;;;;;;;1.45;1.35;;;;;;;;;;5019945;28;20041;-78
2023/12/07 12:58:10;;;;;;;1.77;1.17;;;;;;;;;;5016261;28;20531;-77
2023/12/07 13:00:41;;;;;;;1.75;0.80;;;;;;;;;;5026259;28;20492;-77
2023/12/07 13:03:07;;;;;;;0.75;0.75;;;;;;;;;;5016451;28;20500;-78
2023/12/07 13:05:34;;;;;;;1.27;1.10;;;;;;;;;;5025070;28;20388;-79
2023/12/07 13:08:00;;;;;;;1.10;1.02;;;;;;;;;;5009779;28;20025;-78
2023/12/07 13:10:27;;;;;;;0.82;0.82;;;;;;;;;;5019293;28;20030;-78
2023/12/07 13:12:53;;;;;;;1.55;0.88;;;;;;;;;;5021744;28;20025;-79
2023/12/07 13:15:19;;;;;;;1.40;1.30;;;;;;;;;;5030770;28;20029;-80
2023/12/07 13:17:45;;;;;;;2.45;1.30;;;;;;;;;;5022727;28;20032;-79
2023/12/07 13:20:15;;;;;;;2.35;1.58;;;;;;;;;;5022493;28;20504;-79
2023/12/07 13:22:43;;;;;;;2.17;1.45;;;;;;;;;;5018123;28;20022;-76
2023/12/07 13:25:09;;;;;;;1.38;1.20;;;;;;;;;;5017703;28;20026;-78
2023/12/07 13:27:36;;;;;;;2.72;1.48;;;;;;;;;;5017333;28;20033;-80
2023/12/07 13:30:06;;;;;;;1.50;1.38;;;;;;;;;;5016161;28;20029;-79
2023/12/07 13:32:33;;;;;;;1.60;1.25;;;;;;;;;;5026585;28;20018;-78
2023/12/07 13:34:59;;;;;;;2.53;1.20;;;;;;;;;;5020026;28;20072;-78
2023/12/07 13:37:25;;;;;;;2.00;1.23;;;;;;;;;;5023270;28;20028;-79
2023/12/07 13:39:57;;;;;;;2.85;1.65;;;;;;;;;;5020243;28;20219;-77
2023/12/07 13:42:26;;;;;;;1.38;1.20;;;;;;;;;;5024405;28;20455;-77
2023/12/07 13:44:53;;;;;;;2.03;1.30;;;;;;;;;;5016248;28;20022;-77
2023/12/07 13:47:20;;;;;;;1.45;1.20;;;;;;;;;;5018514;28;20030;-79
2023/12/07 13:49:46;;;;;;;1.80;1.30;;;;;;;;;;5026821;28;20038;-78
2023/12/07 13:52:16;;;;;;;2.25;1.20;;;;;;;;;;5020681;28;20029;-80
2023/12/07 13:54:42;;;;;;;3.13;1.20;;;;;;;;;;5021250;28;20034;-79
2023/12/07 13:57:10;;;;;;;3.92;1.50;;;;;;;;;;5019375;28;20029;-79
2023/12/07 13:59:38;;;;;;;1.63;1.40;;;;;;;;;;5019024;28;20129;-79
2023/12/07 14:02:04;;;;;;;1.88;1.30;;;;;;;;;;5018836;28;20030;-79
2023/12/07 14:04:31;;;;;;;1.88;1.40;;;;;;;;;;5025579;28;20037;-78
2023/12/07 14:07:08;;;;;;;1.33;1.08;;;;;;;;;;5019144;28;20527;-77
2023/12/07 14:09:34;;;;;;;2.85;1.38;;;;;;;;;;5018551;28;20041;-79
2023/12/07 14:12:00;;;;;;;2.40;0.90;;;;;;;;;;5019659;28;20381;-79
2023/12/07 14:14:26;;;;;;;1.70;1.38;;;;;;;;;;5016186;28;20064;-79
2023/12/07 14:16:54;;;;;;;3.10;1.63;;;;;;;;;;5018036;28;20118;-78
2023/12/07 14:19:20;;;;;;;2.97;2.08;;;;;;;;;;5020085;28;20068;-78
2023/12/07 14:21:47;;;;;;;2.88;1.70;;;;;;;;;;5019252;28;20026;-79
2023/12/07 14:24:13;;;;;;;2.58;1.67;;;;;;;;;;5020170;28;20457;-78
2023/12/07 14:26:43;;;;;;;2.17;1.98;;;;;;;;;;5017396;28;20030;-79
2023/12/07 14:29:14;;;;;;;1.88;1.63;;;;;;;;;;5022544;28;20024;-79
2023/12/07 14:31:40;;;;;;;1.80;1.52;;;;;;;;;;5011779;28;20029;-78
2023/12/07 14:34:06;;;;;;;2.28;1.70;;;;;;;;;;5029588;28;20018;-77
2023/12/07 14:36:32;;;;;;;3.67;2.13;;;;;;;;;;5013264;28;20033;-80